sensor_id;sensor_type;location;lat;lon;timestamp;temperature;humidity
45693;DHT22;31402;44.752;-0.374;2023-02-01T00:02:17;11.60;97.90
45693;DHT22;31402;44.752;-0.374;2023-02-01T00:04:43;11.70;98.00
45693;DHT22;31402;44.752;-0.374;2023-02-01T00:07:09;11.60;97.90
45693;DHT22;31402;44.752;-0.374;2023-02-01T00:09:34;11.60;97.90
45693;DHT22;31402;44.752;-0.374;2023-02-01T00:12:00;11.50;97.90
45693;DHT22;31402;44.752;-0.374;2023-02-01T00:14:28;11.40;97.90
45693;DHT22;31402;44.752;-0.374;2023-02-01T00:16:54;11.50;97.80
45693;DHT22;31402;44.752;-0.374;2023-02-01T00:19:20;11.30;97.90
45693;DHT22;31402;44.752;-0.374;2023-02-01T00:21:46;11.20;98.00
45693;DHT22;31402;44.752;-0.374;2023-02-01T00:24:12;11.20;98.10
45693;DHT22;31402;44.752;-0.374;2023-02-01T00:26:41;11.20;98.20
45693;DHT22;31402;44.752;-0.374;2023-02-01T00:29:13;11.20;97.90
45693;DHT22;31402;44.752;-0.374;2023-02-01T00:31:39;11.20;98.00
45693;DHT22;31402;44.752;-0.374;2023-02-01T00:34:05;11.20;97.80
45693;DHT22;31402;44.752;-0.374;2023-02-01T00:36:31;11.20;97.80
45693;DHT22;31402;44.752;-0.374;2023-02-01T00:38:57;11.10;97.70
45693;DHT22;31402;44.752;-0.374;2023-02-01T00:41:22;11.10;97.80
45693;DHT22;31402;44.752;-0.374;2023-02-01T00:43:50;11.10;97.70
45693;DHT22;31402;44.752;-0.374;2023-02-01T00:46:17;11.00;97.70
45693;DHT22;31402;44.752;-0.374;2023-02-01T00:48:44;10.90;97.80
45693;DHT22;31402;44.752;-0.374;2023-02-01T00:51:13;10.80;97.80
45693;DHT22;31402;44.752;-0.374;2023-02-01T00:53:40;10.80;97.80
45693;DHT22;31402;44.752;-0.374;2023-02-01T00:56:06;10.80;97.80
45693;DHT22;31402;44.752;-0.374;2023-02-01T00:58:33;10.60;97.90
45693;DHT22;31402;44.752;-0.374;2023-02-01T01:01:05;10.50;97.90
45693;DHT22;31402;44.752;-0.374;2023-02-01T01:03:33;10.50;98.20
45693;DHT22;31402;44.752;-0.374;2023-02-01T01:06:01;10.60;97.90
45693;DHT22;31402;44.752;-0.374;2023-02-01T01:08:27;10.60;98.00
45693;DHT22;31402;44.752;-0.374;2023-02-01T01:10:53;10.60;98.00
45693;DHT22;31402;44.752;-0.374;2023-02-01T01:13:19;10.70;97.80
45693;DHT22;31402;44.752;-0.374;2023-02-01T01:15:45;10.60;97.60
45693;DHT22;31402;44.752;-0.374;2023-02-01T01:18:11;10.50;97.30
45693;DHT22;31402;44.752;-0.374;2023-02-01T01:20:40;10.50;97.50
45693;DHT22;31402;44.752;-0.374;2023-02-01T01:23:07;10.40;97.40
45693;DHT22;31402;44.752;-0.374;2023-02-01T01:25:38;10.30;97.60
45693;DHT22;31402;44.752;-0.374;2023-02-01T01:28:04;10.20;97.90
45693;DHT22;31402;44.752;-0.374;2023-02-01T01:30:29;10.20;97.80
45693;DHT22;31402;44.752;-0.374;2023-02-01T01:32:55;10.20;97.60
45693;DHT22;31402;44.752;-0.374;2023-02-01T01:35:21;10.00;98.00
45693;DHT22;31402;44.752;-0.374;2023-02-01T01:37:47;9.90;97.90
45693;DHT22;31402;44.752;-0.374;2023-02-01T01:40:13;10.00;98.00
45693;DHT22;31402;44.752;-0.374;2023-02-01T01:42:40;10.00;97.80
45693;DHT22;31402;44.752;-0.374;2023-02-01T01:45:43;10.00;97.80
45693;DHT22;31402;44.752;-0.374;2023-02-01T01:48:08;10.00;97.70
45693;DHT22;31402;44.752;-0.374;2023-02-01T01:50:48;9.90;97.60
45693;DHT22;31402;44.752;-0.374;2023-02-01T01:53:19;9.90;97.50
45693;DHT22;31402;44.752;-0.374;2023-02-01T01:55:47;9.90;97.50
45693;DHT22;31402;44.752;-0.374;2023-02-01T01:58:21;9.80;97.20
45693;DHT22;31402;44.752;-0.374;2023-02-01T02:00:47;9.70;97.30
45693;DHT22;31402;44.752;-0.374;2023-02-01T02:03:19;9.70;97.30
45693;DHT22;31402;44.752;-0.374;2023-02-01T02:05:47;9.70;97.30
45693;DHT22;31402;44.752;-0.374;2023-02-01T02:08:14;9.70;97.20
45693;DHT22;31402;44.752;-0.374;2023-02-01T02:10:40;9.60;97.20
45693;DHT22;31402;44.752;-0.374;2023-02-01T02:13:24;9.60;97.30
45693;DHT22;31402;44.752;-0.374;2023-02-01T02:22:21;9.70;97.00
45693;DHT22;31402;44.752;-0.374;2023-02-01T02:44:53;9.50;96.80
45693;DHT22;31402;44.752;-0.374;2023-02-01T02:53:21;9.60;96.30
45693;DHT22;31402;44.752;-0.374;2023-02-01T02:56:10;9.50;96.50
45693;DHT22;31402;44.752;-0.374;2023-02-01T02:58:56;9.40;96.80
45693;DHT22;31402;44.752;-0.374;2023-02-01T03:01:42;9.40;96.90
45693;DHT22;31402;44.752;-0.374;2023-02-01T03:04:26;9.50;97.00
45693;DHT22;31402;44.752;-0.374;2023-02-01T03:06:53;9.40;97.10
45693;DHT22;31402;44.752;-0.374;2023-02-01T03:09:25;9.20;97.70
45693;DHT22;31402;44.752;-0.374;2023-02-01T03:11:56;9.20;97.80
45693;DHT22;31402;44.752;-0.374;2023-02-01T03:14:43;9.20;97.80
45693;DHT22;31402;44.752;-0.374;2023-02-01T03:17:14;9.30;97.80
45693;DHT22;31402;44.752;-0.374;2023-02-01T03:19:43;9.40;97.90
45693;DHT22;31402;44.752;-0.374;2023-02-01T03:22:17;9.50;97.90
45693;DHT22;31402;44.752;-0.374;2023-02-01T03:24:55;9.50;97.80
45693;DHT22;31402;44.752;-0.374;2023-02-01T03:27:46;9.50;97.90
45693;DHT22;31402;44.752;-0.374;2023-02-01T03:30:26;9.50;97.90
45693;DHT22;31402;44.752;-0.374;2023-02-01T03:32:55;9.40;98.00
45693;DHT22;31402;44.752;-0.374;2023-02-01T03:41:08;9.40;98.10
45693;DHT22;31402;44.752;-0.374;2023-02-01T03:43:42;9.40;98.10
45693;DHT22;31402;44.752;-0.374;2023-02-01T03:46:14;9.50;97.90
45693;DHT22;31402;44.752;-0.374;2023-02-01T03:48:43;9.50;97.70
45693;DHT22;31402;44.752;-0.374;2023-02-01T03:51:10;9.60;97.80
45693;DHT22;31402;44.752;-0.374;2023-02-01T03:53:36;9.50;97.90
45693;DHT22;31402;44.752;-0.374;2023-02-01T03:56:04;9.50;97.80
45693;DHT22;31402;44.752;-0.374;2023-02-01T03:58:31;9.40;97.70
45693;DHT22;31402;44.752;-0.374;2023-02-01T04:00:58;9.50;97.90
45693;DHT22;31402;44.752;-0.374;2023-02-01T04:03:25;9.50;97.70
45693;DHT22;31402;44.752;-0.374;2023-02-01T04:05:52;9.40;97.50
45693;DHT22;31402;44.752;-0.374;2023-02-01T04:08:19;9.30;97.90
45693;DHT22;31402;44.752;-0.374;2023-02-01T04:10:45;9.30;98.10
45693;DHT22;31402;44.752;-0.374;2023-02-01T04:13:11;9.20;98.00
45693;DHT22;31402;44.752;-0.374;2023-02-01T04:15:37;9.20;98.20
45693;DHT22;31402;44.752;-0.374;2023-02-01T04:18:03;9.30;98.10
45693;DHT22;31402;44.752;-0.374;2023-02-01T04:20:29;9.30;98.10
45693;DHT22;31402;44.752;-0.374;2023-02-01T04:22:54;9.30;98.10
45693;DHT22;31402;44.752;-0.374;2023-02-01T04:25:20;9.40;98.10
45693;DHT22;31402;44.752;-0.374;2023-02-01T04:27:46;9.40;98.20
45693;DHT22;31402;44.752;-0.374;2023-02-01T04:30:13;9.40;98.10
45693;DHT22;31402;44.752;-0.374;2023-02-01T04:32:39;9.40;97.70
45693;DHT22;31402;44.752;-0.374;2023-02-01T04:35:06;9.40;97.60
45693;DHT22;31402;44.752;-0.374;2023-02-01T04:37:32;9.40;97.80
45693;DHT22;31402;44.752;-0.374;2023-02-01T04:39:58;9.40;97.90
45693;DHT22;31402;44.752;-0.374;2023-02-01T04:42:24;9.50;98.00
45693;DHT22;31402;44.752;-0.374;2023-02-01T04:44:50;9.50;97.90
45693;DHT22;31402;44.752;-0.374;2023-02-01T04:47:16;9.50;97.80
45693;DHT22;31402;44.752;-0.374;2023-02-01T04:49:42;9.50;97.60
45693;DHT22;31402;44.752;-0.374;2023-02-01T04:52:07;9.50;97.60
45693;DHT22;31402;44.752;-0.374;2023-02-01T04:54:33;9.50;97.60
45693;DHT22;31402;44.752;-0.374;2023-02-01T04:56:59;9.50;97.70
45693;DHT22;31402;44.752;-0.374;2023-02-01T04:59:25;9.50;97.80
45693;DHT22;31402;44.752;-0.374;2023-02-01T05:01:51;9.40;97.80
45693;DHT22;31402;44.752;-0.374;2023-02-01T05:04:17;9.30;98.10
45693;DHT22;31402;44.752;-0.374;2023-02-01T05:06:44;9.20;98.30
45693;DHT22;31402;44.752;-0.374;2023-02-01T05:09:10;9.10;98.70
45693;DHT22;31402;44.752;-0.374;2023-02-01T05:11:36;9.10;98.90
45693;DHT22;31402;44.752;-0.374;2023-02-01T05:14:21;9.10;98.90
45693;DHT22;31402;44.752;-0.374;2023-02-01T05:16:46;9.20;98.90
45693;DHT22;31402;44.752;-0.374;2023-02-01T05:19:12;9.20;98.70
45693;DHT22;31402;44.752;-0.374;2023-02-01T05:21:38;9.20;98.70
45693;DHT22;31402;44.752;-0.374;2023-02-01T05:24:04;9.20;98.70
45693;DHT22;31402;44.752;-0.374;2023-02-01T05:26:41;9.20;98.70
45693;DHT22;31402;44.752;-0.374;2023-02-01T05:29:08;9.20;98.80
45693;DHT22;31402;44.752;-0.374;2023-02-01T05:31:35;9.10;99.00
45693;DHT22;31402;44.752;-0.374;2023-02-01T05:34:01;9.10;99.00
45693;DHT22;31402;44.752;-0.374;2023-02-01T05:36:27;9.20;99.10
45693;DHT22;31402;44.752;-0.374;2023-02-01T05:38:52;9.20;99.00
45693;DHT22;31402;44.752;-0.374;2023-02-01T05:41:18;9.30;98.90
45693;DHT22;31402;44.752;-0.374;2023-02-01T05:43:44;9.30;98.90
45693;DHT22;31402;44.752;-0.374;2023-02-01T05:46:10;9.30;98.90
45693;DHT22;31402;44.752;-0.374;2023-02-01T05:48:38;9.40;98.80
45693;DHT22;31402;44.752;-0.374;2023-02-01T05:51:04;9.30;98.70
45693;DHT22;31402;44.752;-0.374;2023-02-01T05:53:30;9.30;98.90
45693;DHT22;31402;44.752;-0.374;2023-02-01T05:55:56;9.40;98.80
45693;DHT22;31402;44.752;-0.374;2023-02-01T05:58:22;9.40;98.80
45693;DHT22;31402;44.752;-0.374;2023-02-01T06:00:47;9.40;98.70
45693;DHT22;31402;44.752;-0.374;2023-02-01T06:03:13;9.30;98.70
45693;DHT22;31402;44.752;-0.374;2023-02-01T06:05:39;9.40;98.70
45693;DHT22;31402;44.752;-0.374;2023-02-01T06:08:05;9.30;98.80
45693;DHT22;31402;44.752;-0.374;2023-02-01T06:10:33;9.40;98.90
45693;DHT22;31402;44.752;-0.374;2023-02-01T06:12:59;9.30;99.00
45693;DHT22;31402;44.752;-0.374;2023-02-01T06:15:24;9.40;99.10
45693;DHT22;31402;44.752;-0.374;2023-02-01T06:17:50;9.50;98.90
45693;DHT22;31402;44.752;-0.374;2023-02-01T06:20:16;9.60;98.90
45693;DHT22;31402;44.752;-0.374;2023-02-01T06:22:42;9.60;98.90
45693;DHT22;31402;44.752;-0.374;2023-02-01T06:25:10;9.50;99.30
45693;DHT22;31402;44.752;-0.374;2023-02-01T06:27:36;9.60;99.50
45693;DHT22;31402;44.752;-0.374;2023-02-01T06:30:03;9.70;99.70
45693;DHT22;31402;44.752;-0.374;2023-02-01T06:32:29;9.70;99.70
45693;DHT22;31402;44.752;-0.374;2023-02-01T06:34:55;9.60;99.20
45693;DHT22;31402;44.752;-0.374;2023-02-01T06:37:22;9.60;99.40
45693;DHT22;31402;44.752;-0.374;2023-02-01T06:39:50;9.60;99.40
45693;DHT22;31402;44.752;-0.374;2023-02-01T06:42:16;9.70;99.80
45693;DHT22;31402;44.752;-0.374;2023-02-01T06:44:41;9.60;99.70
45693;DHT22;31402;44.752;-0.374;2023-02-01T06:47:07;9.60;99.40
45693;DHT22;31402;44.752;-0.374;2023-02-01T06:49:33;9.70;99.90
45693;DHT22;31402;44.752;-0.374;2023-02-01T06:51:59;9.60;99.40
45693;DHT22;31402;44.752;-0.374;2023-02-01T06:54:28;9.70;99.60
45693;DHT22;31402;44.752;-0.374;2023-02-01T06:56:55;9.70;99.40
45693;DHT22;31402;44.752;-0.374;2023-02-01T06:59:20;9.70;99.30
45693;DHT22;31402;44.752;-0.374;2023-02-01T07:01:46;9.50;99.00
45693;DHT22;31402;44.752;-0.374;2023-02-01T07:04:12;9.50;99.40
45693;DHT22;31402;44.752;-0.374;2023-02-01T07:06:39;9.60;99.00
45693;DHT22;31402;44.752;-0.374;2023-02-01T07:09:05;9.60;99.10
45693;DHT22;31402;44.752;-0.374;2023-02-01T07:11:31;9.50;99.00
45693;DHT22;31402;44.752;-0.374;2023-02-01T07:13:57;9.50;99.20
45693;DHT22;31402;44.752;-0.374;2023-02-01T07:16:23;9.50;99.20
45693;DHT22;31402;44.752;-0.374;2023-02-01T07:18:51;9.60;99.10
45693;DHT22;31402;44.752;-0.374;2023-02-01T07:21:17;9.40;99.00
45693;DHT22;31402;44.752;-0.374;2023-02-01T07:23:43;9.40;99.30
45693;DHT22;31402;44.752;-0.374;2023-02-01T07:26:11;9.30;99.30
45693;DHT22;31402;44.752;-0.374;2023-02-01T07:28:39;9.20;99.50
45693;DHT22;31402;44.752;-0.374;2023-02-01T07:31:10;9.20;99.60
45693;DHT22;31402;44.752;-0.374;2023-02-01T07:33:36;9.20;99.40
45693;DHT22;31402;44.752;-0.374;2023-02-01T07:36:04;9.20;99.50
45693;DHT22;31402;44.752;-0.374;2023-02-01T07:38:30;9.20;99.60
45693;DHT22;31402;44.752;-0.374;2023-02-01T07:41:03;9.30;99.50
45693;DHT22;31402;44.752;-0.374;2023-02-01T07:43:30;9.20;99.60
45693;DHT22;31402;44.752;-0.374;2023-02-01T07:45:56;9.10;99.70
45693;DHT22;31402;44.752;-0.374;2023-02-01T07:48:23;9.00;99.80
45693;DHT22;31402;44.752;-0.374;2023-02-01T07:50:57;9.20;99.80
45693;DHT22;31402;44.752;-0.374;2023-02-01T07:53:24;9.20;99.60
45693;DHT22;31402;44.752;-0.374;2023-02-01T07:55:49;9.30;99.50
45693;DHT22;31402;44.752;-0.374;2023-02-01T07:58:15;9.30;99.60
45693;DHT22;31402;44.752;-0.374;2023-02-01T08:00:41;9.30;99.60
45693;DHT22;31402;44.752;-0.374;2023-02-01T08:03:25;9.30;99.50
45693;DHT22;31402;44.752;-0.374;2023-02-01T08:05:54;9.20;99.70
45693;DHT22;31402;44.752;-0.374;2023-02-01T08:08:21;9.10;99.80
45693;DHT22;31402;44.752;-0.374;2023-02-01T08:10:47;9.20;99.90
45693;DHT22;31402;44.752;-0.374;2023-02-01T08:13:13;9.20;99.80
45693;DHT22;31402;44.752;-0.374;2023-02-01T08:15:39;9.40;99.70
45693;DHT22;31402;44.752;-0.374;2023-02-01T08:18:04;9.40;99.70
45693;DHT22;31402;44.752;-0.374;2023-02-01T08:20:30;9.50;99.60
45693;DHT22;31402;44.752;-0.374;2023-02-01T08:22:56;9.40;99.80
45693;DHT22;31402;44.752;-0.374;2023-02-01T08:25:23;9.40;99.80
45693;DHT22;31402;44.752;-0.374;2023-02-01T08:27:49;9.30;99.90
45693;DHT22;31402;44.752;-0.374;2023-02-01T08:30:15;9.40;99.80
45693;DHT22;31402;44.752;-0.374;2023-02-01T08:32:41;9.30;99.90
45693;DHT22;31402;44.752;-0.374;2023-02-01T08:35:07;9.40;99.80
45693;DHT22;31402;44.752;-0.374;2023-02-01T08:37:33;9.30;99.90
45693;DHT22;31402;44.752;-0.374;2023-02-01T08:39:59;9.40;99.90
45693;DHT22;31402;44.752;-0.374;2023-02-01T08:42:25;9.50;99.90
45693;DHT22;31402;44.752;-0.374;2023-02-01T08:45:10;9.60;99.90
45693;DHT22;31402;44.752;-0.374;2023-02-01T08:47:35;9.60;99.90
45693;DHT22;31402;44.752;-0.374;2023-02-01T08:50:01;9.70;99.90
45693;DHT22;31402;44.752;-0.374;2023-02-01T08:52:27;9.60;99.90
45693;DHT22;31402;44.752;-0.374;2023-02-01T08:54:53;9.60;99.90
45693;DHT22;31402;44.752;-0.374;2023-02-01T08:57:19;9.60;99.90
45693;DHT22;31402;44.752;-0.374;2023-02-01T08:59:44;9.70;99.90
45693;DHT22;31402;44.752;-0.374;2023-02-01T09:02:14;9.80;99.90
45693;DHT22;31402;44.752;-0.374;2023-02-01T09:04:41;9.70;99.90
45693;DHT22;31402;44.752;-0.374;2023-02-01T09:07:10;9.70;99.90
45693;DHT22;31402;44.752;-0.374;2023-02-01T09:09:36;9.80;99.90
45693;DHT22;31402;44.752;-0.374;2023-02-01T09:12:03;9.80;99.60
45693;DHT22;31402;44.752;-0.374;2023-02-01T09:14:29;9.80;99.70
45693;DHT22;31402;44.752;-0.374;2023-02-01T09:16:55;9.70;99.80
45693;DHT22;31402;44.752;-0.374;2023-02-01T09:19:21;9.70;99.90
45693;DHT22;31402;44.752;-0.374;2023-02-01T09:21:47;9.70;99.90
45693;DHT22;31402;44.752;-0.374;2023-02-01T09:24:13;9.70;99.90
45693;DHT22;31402;44.752;-0.374;2023-02-01T09:26:38;9.80;99.90
45693;DHT22;31402;44.752;-0.374;2023-02-01T09:29:05;9.80;99.90
45693;DHT22;31402;44.752;-0.374;2023-02-01T09:31:35;10.00;99.70
45693;DHT22;31402;44.752;-0.374;2023-02-01T09:34:02;10.00;99.70
45693;DHT22;31402;44.752;-0.374;2023-02-01T09:36:28;9.90;99.80
45693;DHT22;31402;44.752;-0.374;2023-02-01T09:38:53;9.90;99.80
45693;DHT22;31402;44.752;-0.374;2023-02-01T09:46:58;10.20;99.80
45693;DHT22;31402;44.752;-0.374;2023-02-01T09:49:37;10.20;99.80
45693;DHT22;31402;44.752;-0.374;2023-02-01T09:52:10;10.30;99.40
45693;DHT22;31402;44.752;-0.374;2023-02-01T09:54:52;10.40;99.30
45693;DHT22;31402;44.752;-0.374;2023-02-01T09:57:20;10.40;99.50
45693;DHT22;31402;44.752;-0.374;2023-02-01T10:00:03;10.60;99.10
45693;DHT22;31402;44.752;-0.374;2023-02-01T10:02:29;10.70;98.90
45693;DHT22;31402;44.752;-0.374;2023-02-01T10:04:58;10.60;99.00
45693;DHT22;31402;44.752;-0.374;2023-02-01T10:07:39;10.60;99.20
45693;DHT22;31402;44.752;-0.374;2023-02-01T10:10:28;10.60;99.20
45693;DHT22;31402;44.752;-0.374;2023-02-01T10:13:17;10.70;99.10
45693;DHT22;31402;44.752;-0.374;2023-02-01T10:15:59;10.70;98.80
45693;DHT22;31402;44.752;-0.374;2023-02-01T10:18:40;10.80;98.90
45693;DHT22;31402;44.752;-0.374;2023-02-01T10:21:17;11.00;98.60
45693;DHT22;31402;44.752;-0.374;2023-02-01T10:26:27;11.20;98.30
45693;DHT22;31402;44.752;-0.374;2023-02-01T10:29:03;11.40;98.00
45693;DHT22;31402;44.752;-0.374;2023-02-01T10:31:31;11.50;97.60
45693;DHT22;31402;44.752;-0.374;2023-02-01T10:34:01;11.70;97.40
45693;DHT22;31402;44.752;-0.374;2023-02-01T10:36:35;11.80;97.20
45693;DHT22;31402;44.752;-0.374;2023-02-01T10:39:03;11.80;97.60
45693;DHT22;31402;44.752;-0.374;2023-02-01T10:41:39;11.80;96.90
45693;DHT22;31402;44.752;-0.374;2023-02-01T10:44:27;12.00;96.80
45693;DHT22;31402;44.752;-0.374;2023-02-01T10:46:54;12.00;97.00
45693;DHT22;31402;44.752;-0.374;2023-02-01T10:49:29;11.80;97.20
45693;DHT22;31402;44.752;-0.374;2023-02-01T10:52:02;11.90;97.30
45693;DHT22;31402;44.752;-0.374;2023-02-01T10:54:34;12.00;97.30
45693;DHT22;31402;44.752;-0.374;2023-02-01T10:57:01;12.00;97.00
45693;DHT22;31402;44.752;-0.374;2023-02-01T10:59:29;12.10;96.90
45693;DHT22;31402;44.752;-0.374;2023-02-01T11:02:01;12.20;96.80
45693;DHT22;31402;44.752;-0.374;2023-02-01T11:04:31;12.20;96.80
45693;DHT22;31402;44.752;-0.374;2023-02-01T11:07:25;12.10;96.90
45693;DHT22;31402;44.752;-0.374;2023-02-01T11:09:53;12.20;96.60
45693;DHT22;31402;44.752;-0.374;2023-02-01T11:12:37;12.30;96.60
45693;DHT22;31402;44.752;-0.374;2023-02-01T11:15:19;12.40;96.60
45693;DHT22;31402;44.752;-0.374;2023-02-01T11:17:47;12.40;96.50
45693;DHT22;31402;44.752;-0.374;2023-02-01T11:20:19;12.30;96.90
45693;DHT22;31402;44.752;-0.374;2023-02-01T11:22:53;12.30;97.20
45693;DHT22;31402;44.752;-0.374;2023-02-01T11:25:20;12.30;97.50
45693;DHT22;31402;44.752;-0.374;2023-02-01T11:27:48;12.40;97.60
45693;DHT22;31402;44.752;-0.374;2023-02-01T11:30:37;12.50;97.80
45693;DHT22;31402;44.752;-0.374;2023-02-01T11:33:05;12.60;97.50
45693;DHT22;31402;44.752;-0.374;2023-02-01T11:35:32;12.70;97.50
45693;DHT22;31402;44.752;-0.374;2023-02-01T11:37:59;12.80;97.60
45693;DHT22;31402;44.752;-0.374;2023-02-01T11:40:34;12.80;97.80
45693;DHT22;31402;44.752;-0.374;2023-02-01T11:46:03;13.00;97.50
45693;DHT22;31402;44.752;-0.374;2023-02-01T11:48:31;13.00;97.30
45693;DHT22;31402;44.752;-0.374;2023-02-01T11:51:22;13.00;97.40
45693;DHT22;31402;44.752;-0.374;2023-02-01T12:04:35;13.10;98.00
45693;DHT22;31402;44.752;-0.374;2023-02-01T12:07:17;13.20;98.00
45693;DHT22;31402;44.752;-0.374;2023-02-01T12:09:51;13.30;98.10
45693;DHT22;31402;44.752;-0.374;2023-02-01T12:12:43;13.40;97.90
45693;DHT22;31402;44.752;-0.374;2023-02-01T12:15:22;13.40;97.90
45693;DHT22;31402;44.752;-0.374;2023-02-01T12:20:59;13.70;97.70
45693;DHT22;31402;44.752;-0.374;2023-02-01T12:23:45;14.00;96.90
45693;DHT22;31402;44.752;-0.374;2023-02-01T12:32:11;14.10;96.30
45693;DHT22;31402;44.752;-0.374;2023-02-01T12:37:36;14.10;96.40
45693;DHT22;31402;44.752;-0.374;2023-02-01T12:40:38;14.20;96.20
45693;DHT22;31402;44.752;-0.374;2023-02-01T12:43:47;14.40;96.10
45693;DHT22;31402;44.752;-0.374;2023-02-01T12:46:21;14.50;96.10
45693;DHT22;31402;44.752;-0.374;2023-02-01T12:51:34;14.80;95.00
45693;DHT22;31402;44.752;-0.374;2023-02-01T12:57:01;14.60;95.30
45693;DHT22;31402;44.752;-0.374;2023-02-01T12:59:47;14.60;95.60
45693;DHT22;31402;44.752;-0.374;2023-02-01T13:02:47;14.80;95.80
45693;DHT22;31402;44.752;-0.374;2023-02-01T13:08:04;15.10;93.50
45693;DHT22;31402;44.752;-0.374;2023-02-01T13:16:35;15.20;93.40
45693;DHT22;31402;44.752;-0.374;2023-02-01T13:19:16;15.40;93.30
45693;DHT22;31402;44.752;-0.374;2023-02-01T13:21:46;15.50;93.00
45693;DHT22;31402;44.752;-0.374;2023-02-01T13:27:00;15.50;92.70
45693;DHT22;31402;44.752;-0.374;2023-02-01T13:29:28;15.30;92.30
45693;DHT22;31402;44.752;-0.374;2023-02-01T13:40:36;14.70;93.20
45693;DHT22;31402;44.752;-0.374;2023-02-01T13:46:24;14.80;92.60
45693;DHT22;31402;44.752;-0.374;2023-02-01T13:51:13;14.60;93.30
45693;DHT22;31402;44.752;-0.374;2023-02-01T13:53:47;14.50;93.40
45693;DHT22;31402;44.752;-0.374;2023-02-01T13:56:17;14.40;93.60
45693;DHT22;31402;44.752;-0.374;2023-02-01T13:58:45;14.40;92.90
45693;DHT22;31402;44.752;-0.374;2023-02-01T14:03:48;14.30;93.20
45693;DHT22;31402;44.752;-0.374;2023-02-01T14:11:54;14.40;94.00
45693;DHT22;31402;44.752;-0.374;2023-02-01T14:19:24;14.30;93.40
45693;DHT22;31402;44.752;-0.374;2023-02-01T14:24:28;14.30;93.90
45693;DHT22;31402;44.752;-0.374;2023-02-01T14:26:59;14.30;93.70
45693;DHT22;31402;44.752;-0.374;2023-02-01T14:29:35;14.50;93.60
45693;DHT22;31402;44.752;-0.374;2023-02-01T14:37:25;14.70;92.50
45693;DHT22;31402;44.752;-0.374;2023-02-01T14:40:04;14.60;92.70
45693;DHT22;31402;44.752;-0.374;2023-02-01T14:47:53;14.20;93.70
45693;DHT22;31402;44.752;-0.374;2023-02-01T15:01:22;14.10;94.40
45693;DHT22;31402;44.752;-0.374;2023-02-01T15:06:33;14.30;94.20
45693;DHT22;31402;44.752;-0.374;2023-02-01T15:14:35;14.30;92.60
45693;DHT22;31402;44.752;-0.374;2023-02-01T15:17:02;14.40;92.90
45693;DHT22;31402;44.752;-0.374;2023-02-01T15:19:29;14.40;92.60
45693;DHT22;31402;44.752;-0.374;2023-02-01T15:21:57;14.40;92.30
45693;DHT22;31402;44.752;-0.374;2023-02-01T15:24:29;14.40;91.90
45693;DHT22;31402;44.752;-0.374;2023-02-01T15:26:58;14.40;92.60
45693;DHT22;31402;44.752;-0.374;2023-02-01T15:29:27;14.40;92.60
45693;DHT22;31402;44.752;-0.374;2023-02-01T15:31:57;14.30;91.90
45693;DHT22;31402;44.752;-0.374;2023-02-01T15:34:23;14.30;92.10
45693;DHT22;31402;44.752;-0.374;2023-02-01T15:37:13;14.30;91.90
45693;DHT22;31402;44.752;-0.374;2023-02-01T15:42:49;14.30;91.60
45693;DHT22;31402;44.752;-0.374;2023-02-01T15:45:25;14.30;91.00
45693;DHT22;31402;44.752;-0.374;2023-02-01T15:47:53;14.30;90.40
45693;DHT22;31402;44.752;-0.374;2023-02-01T15:50:20;14.30;90.70
45693;DHT22;31402;44.752;-0.374;2023-02-01T15:52:51;14.30;91.10
45693;DHT22;31402;44.752;-0.374;2023-02-01T15:55:30;14.30;91.20
45693;DHT22;31402;44.752;-0.374;2023-02-01T15:57:59;14.30;91.20
45693;DHT22;31402;44.752;-0.374;2023-02-01T16:00:28;14.40;91.20
45693;DHT22;31402;44.752;-0.374;2023-02-01T16:03:03;14.40;91.20
45693;DHT22;31402;44.752;-0.374;2023-02-01T16:05:40;14.50;91.10
45693;DHT22;31402;44.752;-0.374;2023-02-01T16:10:42;14.40;91.10
45693;DHT22;31402;44.752;-0.374;2023-02-01T16:13:09;14.40;90.90
45693;DHT22;31402;44.752;-0.374;2023-02-01T16:15:35;14.40;91.10
45693;DHT22;31402;44.752;-0.374;2023-02-01T16:18:01;14.40;91.10
45693;DHT22;31402;44.752;-0.374;2023-02-01T16:20:27;14.40;91.50
45693;DHT22;31402;44.752;-0.374;2023-02-01T16:22:53;14.30;91.60
45693;DHT22;31402;44.752;-0.374;2023-02-01T16:25:18;14.40;91.50
45693;DHT22;31402;44.752;-0.374;2023-02-01T16:27:44;14.40;91.30
45693;DHT22;31402;44.752;-0.374;2023-02-01T16:30:11;14.30;91.40
45693;DHT22;31402;44.752;-0.374;2023-02-01T16:32:37;14.30;91.70
45693;DHT22;31402;44.752;-0.374;2023-02-01T16:35:23;14.30;91.70
45693;DHT22;31402;44.752;-0.374;2023-02-01T16:37:49;14.20;91.50
45693;DHT22;31402;44.752;-0.374;2023-02-01T16:40:17;14.10;91.70
45693;DHT22;31402;44.752;-0.374;2023-02-01T16:42:43;14.10;91.90
45693;DHT22;31402;44.752;-0.374;2023-02-01T16:45:09;14.10;91.80
45693;DHT22;31402;44.752;-0.374;2023-02-01T16:47:37;14.00;91.90
45693;DHT22;31402;44.752;-0.374;2023-02-01T16:50:04;14.00;92.30
45693;DHT22;31402;44.752;-0.374;2023-02-01T16:52:39;14.00;91.90
45693;DHT22;31402;44.752;-0.374;2023-02-01T16:55:13;13.90;92.00
45693;DHT22;31402;44.752;-0.374;2023-02-01T16:57:39;13.90;92.10
45693;DHT22;31402;44.752;-0.374;2023-02-01T17:00:05;13.80;92.00
45693;DHT22;31402;44.752;-0.374;2023-02-01T17:02:31;13.70;92.10
45693;DHT22;31402;44.752;-0.374;2023-02-01T17:04:57;13.70;92.30
45693;DHT22;31402;44.752;-0.374;2023-02-01T17:07:22;13.60;92.30
45693;DHT22;31402;44.752;-0.374;2023-02-01T17:09:48;13.60;92.40
45693;DHT22;31402;44.752;-0.374;2023-02-01T17:12:27;13.60;92.60
45693;DHT22;31402;44.752;-0.374;2023-02-01T17:14:53;13.60;92.60
45693;DHT22;31402;44.752;-0.374;2023-02-01T17:17:20;13.50;92.60
45693;DHT22;31402;44.752;-0.374;2023-02-01T17:19:48;13.50;92.80
45693;DHT22;31402;44.752;-0.374;2023-02-01T17:22:17;13.50;92.80
45693;DHT22;31402;44.752;-0.374;2023-02-01T17:24:43;13.40;92.80
45693;DHT22;31402;44.752;-0.374;2023-02-01T17:27:09;13.40;92.90
45693;DHT22;31402;44.752;-0.374;2023-02-01T17:29:35;13.40;92.90
45693;DHT22;31402;44.752;-0.374;2023-02-01T17:32:02;13.50;93.00
45693;DHT22;31402;44.752;-0.374;2023-02-01T17:34:28;13.60;93.20
45693;DHT22;31402;44.752;-0.374;2023-02-01T17:36:53;13.60;93.10
45693;DHT22;31402;44.752;-0.374;2023-02-01T17:39:19;13.60;93.10
45693;DHT22;31402;44.752;-0.374;2023-02-01T17:42:04;13.60;93.10
45693;DHT22;31402;44.752;-0.374;2023-02-01T17:44:30;13.50;93.00
45693;DHT22;31402;44.752;-0.374;2023-02-01T17:46:57;13.60;93.30
45693;DHT22;31402;44.752;-0.374;2023-02-01T17:49:24;13.60;93.30
45693;DHT22;31402;44.752;-0.374;2023-02-01T17:51:51;13.50;92.90
45693;DHT22;31402;44.752;-0.374;2023-02-01T17:54:17;13.40;92.90
45693;DHT22;31402;44.752;-0.374;2023-02-01T17:56:45;13.40;92.90
45693;DHT22;31402;44.752;-0.374;2023-02-01T17:59:13;13.40;93.00
45693;DHT22;31402;44.752;-0.374;2023-02-01T18:01:39;13.40;93.10
45693;DHT22;31402;44.752;-0.374;2023-02-01T18:04:08;13.40;92.90
45693;DHT22;31402;44.752;-0.374;2023-02-01T18:06:35;13.60;93.30
45693;DHT22;31402;44.752;-0.374;2023-02-01T18:09:01;13.70;93.30
45693;DHT22;31402;44.752;-0.374;2023-02-01T18:11:27;13.70;93.00
45693;DHT22;31402;44.752;-0.374;2023-02-01T18:13:57;13.60;93.00